Terminal Aerodrome Forecast
Issued by NWS Chicago, IL

Home | Current Version | Previous Version | Text Only | Print | Product List | Glossary Off
Versions: 1 2 3 4 5 6 7 8 9 10 11 12 13 14 15 16 17 18 19 20 21 22 23 24 25 26 27 28 29 30 31 32 33 34

000
FTUS43 KLOT 211124
TAFRFD
TAF
KRFD 211124Z 2112/2212 13007KT 3/4SM BR OVC003
      TEMPO 2112/2114 1/2SM FG VV002
     FM211430 16009KT 3SM BR BKN006 BKN012
     FM211600 19011KT P6SM BKN020
     FM220000 18004KT 5SM BR SCT007 BKN015
     FM220400 VRB02KT 2SM BR SCT004 OVC007
     FM220700 VRB02KT 3/4SM BR OVC004=

USA.gov is the U.S. government's official web portal to all federal, state and local government web resources and services.